Time;durP1;ratioP1;P1;durP2;ratioP2;P2;SDS_P1;SDS_P2;PMS_P1;PMS_P2;Temp;Humidity;BMP_temperature;BMP_pressure;BME280_temperature;BME280_humidity;BME280_pressure;Samples;Min_cycle;Max_cycle;Signal;HPM_P1;HPM_P2
2021/06/29 00:01:08;;;;;;;;;3.00;2.00;;;;;;;;5051151;28;45452;-78
2021/06/29 00:03:33;;;;;;;;;3.67;1.00;;;;;;;;5053152;28;45343;-79
2021/06/29 00:05:58;;;;;;;;;6.33;6.00;;;;;;;;5050546;28;45430;-79
2021/06/29 00:08:25;;;;;;;;;17.00;15.33;;;;;;;;5051949;28;45527;-80
2021/06/29 00:10:50;;;;;;;;;25.25;23.50;;;;;;;;5052688;28;45656;-79
2021/06/29 00:13:16;;;;;;;;;3.75;3.25;;;;;;;;5060171;28;46993;-80
2021/06/29 00:15:41;;;;;;;;;65.50;47.75;;;;;;;;5052081;28;46060;-79
2021/06/29 00:18:07;;;;;;;;;7.25;6.00;;;;;;;;5056051;28;45385;-80
2021/06/29 00:20:32;;;;;;;;;17.00;13.25;;;;;;;;5046397;28;45680;-79
2021/06/29 00:22:57;;;;;;;;;5.00;5.00;;;;;;;;5048746;28;45538;-79
2021/06/29 00:25:23;;;;;;;;;2.00;2.00;;;;;;;;5051288;28;45615;-80
2021/06/29 00:27:48;;;;;;;;;4.00;2.00;;;;;;;;5053187;28;45543;-79
2021/06/29 00:30:15;;;;;;;;;4.50;4.00;;;;;;;;5052804;28;45473;-79
2021/06/29 00:32:40;;;;;;;;;5.00;4.25;;;;;;;;5052309;28;45537;-79
2021/06/29 00:35:06;;;;;;;;;9.00;7.25;;;;;;;;5051050;28;45473;-78
2021/06/29 00:37:31;;;;;;;;;10.00;8.00;;;;;;;;5052032;28;45493;-79
2021/06/29 00:39:56;;;;;;;;;8.50;5.00;;;;;;;;5054050;28;45448;-79
2021/06/29 00:42:22;;;;;;;;;2.00;2.00;;;;;;;;5058394;28;45555;-78
2021/06/29 00:44:47;;;;;;;;;1.00;1.00;;;;;;;;5050420;28;47311;-79
2021/06/29 00:47:13;;;;;;;;;2.25;1.25;;;;;;;;5057914;27;45331;-79
2021/06/29 00:49:39;;;;;;;;;2.00;2.00;;;;;;;;5059787;28;45450;-79
2021/06/29 00:52:05;;;;;;;;;2.75;2.75;;;;;;;;5055476;28;45616;-80
2021/06/29 00:54:30;;;;;;;;;9.25;7.00;;;;;;;;5058773;28;45985;-79
2021/06/29 00:56:56;;;;;;;;;51.00;42.00;;;;;;;;5053086;28;45549;-80
2021/06/29 00:59:21;;;;;;;;;40.00;34.00;;;;;;;;5054821;28;45595;-79
2021/06/29 01:01:46;;;;;;;;;38.00;31.67;;;;;;;;5051622;28;45780;-80
2021/06/29 01:04:11;;;;;;;;;78.00;65.00;;;;;;;;5057111;28;48507;-79
2021/06/29 01:06:37;;;;;;;;;23.00;17.67;;;;;;;;5045381;28;45556;-79
2021/06/29 01:09:03;;;;;;;;;22.25;21.75;;;;;;;;5050365;28;45506;-80
2021/06/29 01:11:29;;;;;;;;;8.50;7.00;;;;;;;;5049835;28;45780;-79
2021/06/29 01:13:54;;;;;;;;;11.25;8.00;;;;;;;;5056400;28;48923;-80
2021/06/29 01:16:19;;;;;;;;;3.00;3.00;;;;;;;;5052003;28;45798;-79
2021/06/29 01:18:45;;;;;;;;;7.00;6.00;;;;;;;;5049685;28;45760;-79
2021/06/29 01:21:14;;;;;;;;;8.25;7.25;;;;;;;;5053991;28;45809;-79
2021/06/29 01:23:41;;;;;;;;;30.00;23.00;;;;;;;;5043730;28;48284;-79
2021/06/29 01:26:10;;;;;;;;;45.25;35.00;;;;;;;;5049965;28;45934;-79
2021/06/29 01:28:46;;;;;;;;;4.00;4.00;;;;;;;;5052854;28;45443;-80
2021/06/29 01:31:15;;;;;;;;;1.00;1.00;;;;;;;;5059474;28;45577;-79
2021/06/29 01:33:41;;;;;;;;;1.50;1.50;;;;;;;;5049696;28;48091;-79
2021/06/29 01:36:07;;;;;;;;;129.75;107.50;;;;;;;;5051186;28;45686;-79
2021/06/29 01:38:32;;;;;;;;;93.00;82.33;;;;;;;;5051257;28;45773;-79
2021/06/29 01:40:57;;;;;;;;;13.50;10.75;;;;;;;;5051366;28;45535;-79
2021/06/29 01:43:27;;;;;;;;;2.00;2.00;;;;;;;;5053600;28;45774;-79
2021/06/29 01:45:54;;;;;;;;;2.00;2.00;;;;;;;;5062493;28;45528;-80
2021/06/29 01:48:23;;;;;;;;;2.00;2.00;;;;;;;;5052996;28;45552;-79
2021/06/29 01:50:49;;;;;;;;;3.75;2.75;;;;;;;;5051002;28;45904;-79
2021/06/29 01:53:14;;;;;;;;;3.00;2.00;;;;;;;;5051874;28;47006;-79
2021/06/29 01:55:40;;;;;;;;;2.25;2.00;;;;;;;;5053946;28;45914;-80
2021/06/29 01:58:05;;;;;;;;;2.50;2.00;;;;;;;;5063797;28;45525;-79
2021/06/29 02:00:31;;;;;;;;;2.50;2.50;;;;;;;;5055661;28;45716;-79
2021/06/29 02:02:56;;;;;;;;;2.00;2.00;;;;;;;;5057233;28;46074;-79
2021/06/29 02:05:21;;;;;;;;;2.67;2.00;;;;;;;;5055093;28;45450;-79
2021/06/29 02:07:46;;;;;;;;;3.00;2.00;;;;;;;;5061808;28;45682;-79
2021/06/29 02:10:13;;;;;;;;;3.50;3.50;;;;;;;;5051643;28;45336;-79
2021/06/29 02:12:38;;;;;;;;;5.00;3.00;;;;;;;;5063518;28;46031;-79
2021/06/29 02:15:04;;;;;;;;;3.75;3.75;;;;;;;;5060055;27;45401;-80
2021/06/29 02:17:29;;;;;;;;;25.50;21.75;;;;;;;;5055089;27;51188;-79
2021/06/29 02:19:54;;;;;;;;;54.00;40.33;;;;;;;;5053899;28;45599;-80
2021/06/29 02:22:20;;;;;;;;;62.67;48.00;;;;;;;;5054993;28;46297;-80
2021/06/29 02:24:45;;;;;;;;;13.75;12.75;;;;;;;;5062756;28;45475;-79
2021/06/29 02:27:10;;;;;;;;;4.75;4.00;;;;;;;;5050088;28;47348;-80
2021/06/29 02:29:36;;;;;;;;;9.67;9.00;;;;;;;;5053708;28;45425;-79
2021/06/29 02:32:01;;;;;;;;;83.00;64.25;;;;;;;;5056630;27;45671;-80
2021/06/29 02:34:26;;;;;;;;;99.33;88.67;;;;;;;;5062355;28;45567;-80
2021/06/29 02:36:51;;;;;;;;;91.00;77.33;;;;;;;;5066073;28;45530;-80
2021/06/29 02:39:17;;;;;;;;;4.00;4.00;;;;;;;;5058637;28;45897;-79
2021/06/29 02:41:42;;;;;;;;;3.67;2.00;;;;;;;;5053624;28;48282;-80
2021/06/29 02:44:09;;;;;;;;;2.00;2.00;;;;;;;;5050250;28;45666;-79
2021/06/29 02:46:35;;;;;;;;;3.25;3.00;;;;;;;;5050261;28;45512;-79
2021/06/29 02:49:00;;;;;;;;;2.00;1.00;;;;;;;;5054110;28;45484;-79
2021/06/29 02:51:25;;;;;;;;;4.00;3.00;;;;;;;;5052395;28;45602;-79
2021/06/29 02:53:51;;;;;;;;;5.00;2.00;;;;;;;;5051869;28;45456;-79
2021/06/29 02:59:00;;;;;;;;;9.00;7.25;;;;;;;;5052657;28;45751;-79
2021/06/29 03:01:25;;;;;;;;;5.00;5.00;;;;;;;;5067359;28;48447;-80
2021/06/29 03:03:50;;;;;;;;;5.67;5.00;;;;;;;;5052181;28;45890;-79
2021/06/29 03:06:16;;;;;;;;;6.00;3.00;;;;;;;;5052442;28;46900;-79
2021/06/29 03:08:41;;;;;;;;;3.75;2.50;;;;;;;;5050761;28;45493;-79
2021/06/29 03:11:06;;;;;;;;;1.33;1.33;;;;;;;;5052818;28;45510;-80
2021/06/29 03:13:31;;;;;;;;;3.00;1.67;;;;;;;;5049117;28;48045;-81
2021/06/29 03:15:57;;;;;;;;;2.00;2.00;;;;;;;;5053930;28;46527;-79
2021/06/29 03:18:23;;;;;;;;;1.00;1.00;;;;;;;;5053108;28;45244;-80
2021/06/29 03:20:49;;;;;;;;;3.00;1.25;;;;;;;;5052316;28;46206;-80
2021/06/29 03:23:14;;;;;;;;;4.00;3.00;;;;;;;;5049020;28;45443;-80
2021/06/29 03:25:39;;;;;;;;;2.00;2.00;;;;;;;;5050321;28;45399;-80
2021/06/29 03:28:05;;;;;;;;;3.00;3.00;;;;;;;;5052341;28;45569;-79
2021/06/29 03:30:30;;;;;;;;;2.50;2.50;;;;;;;;5061622;28;48443;-79
2021/06/29 03:32:55;;;;;;;;;3.00;3.00;;;;;;;;5054083;28;45619;-80
2021/06/29 03:35:20;;;;;;;;;2.00;2.00;;;;;;;;5055799;28;45505;-80
2021/06/29 03:37:46;;;;;;;;;3.33;2.00;;;;;;;;5052636;28;45485;-80
2021/06/29 03:40:11;;;;;;;;;4.00;2.00;;;;;;;;5056814;28;46423;-80
2021/06/29 03:42:36;;;;;;;;;2.00;2.00;;;;;;;;5061911;28;45558;-80
2021/06/29 03:45:02;;;;;;;;;3.00;3.00;;;;;;;;5055666;28;46854;-79
2021/06/29 03:47:27;;;;;;;;;2.25;2.25;;;;;;;;5058443;28;45490;-80
2021/06/29 03:49:52;;;;;;;;;3.50;3.50;;;;;;;;5055618;28;45357;-80
2021/06/29 03:52:17;;;;;;;;;2.33;2.33;;;;;;;;5063413;28;45409;-80
2021/06/29 03:54:43;;;;;;;;;3.00;3.00;;;;;;;;5053892;28;45384;-80
2021/06/29 03:57:08;;;;;;;;;2.00;2.00;;;;;;;;5055110;28;45458;-79
2021/06/29 03:59:33;;;;;;;;;3.00;2.00;;;;;;;;5059796;28;45406;-79
2021/06/29 04:01:58;;;;;;;;;2.33;2.33;;;;;;;;5055805;28;45655;-80
2021/06/29 04:04:23;;;;;;;;;4.67;3.00;;;;;;;;5055770;28;45369;-79
2021/06/29 04:06:49;;;;;;;;;3.00;3.00;;;;;;;;5053496;28;45468;-79
2021/06/29 04:09:14;;;;;;;;;2.67;2.67;;;;;;;;5053002;28;45590;-79
2021/06/29 04:11:39;;;;;;;;;2.00;2.00;;;;;;;;5051982;28;45624;-79
2021/06/29 04:14:04;;;;;;;;;2.00;2.00;;;;;;;;5053769;28;45516;-80
2021/06/29 04:16:29;;;;;;;;;2.75;2.75;;;;;;;;5056774;28;46874;-79
2021/06/29 04:18:55;;;;;;;;;3.33;2.00;;;;;;;;5064676;28;45969;-78
2021/06/29 04:21:20;;;;;;;;;4.33;2.67;;;;;;;;5053273;28;45544;-80
2021/06/29 04:23:45;;;;;;;;;2.00;2.00;;;;;;;;5051923;28;45422;-80
2021/06/29 04:26:16;;;;;;;;;3.00;2.00;;;;;;;;5054282;28;45421;-79
2021/06/29 04:28:42;;;;;;;;;1.75;1.75;;;;;;;;5054599;28;46255;-80
2021/06/29 04:31:07;;;;;;;;;2.00;2.00;;;;;;;;5053572;28;45635;-80
2021/06/29 04:33:32;;;;;;;;;2.00;2.00;;;;;;;;5052934;28;45635;-80
2021/06/29 04:35:57;;;;;;;;;3.75;2.00;;;;;;;;5054639;28;45539;-79
2021/06/29 04:38:23;;;;;;;;;3.00;3.00;;;;;;;;5052735;28;45746;-78
2021/06/29 04:40:48;;;;;;;;;1.50;1.50;;;;;;;;5055524;28;45478;-79
2021/06/29 04:43:13;;;;;;;;;2.00;2.00;;;;;;;;5051972;28;45492;-78
2021/06/29 04:45:38;;;;;;;;;2.67;2.67;;;;;;;;5052195;28;45593;-80
2021/06/29 04:48:04;;;;;;;;;2.33;2.33;;;;;;;;5053834;28;46017;-80
2021/06/29 04:50:29;;;;;;;;;2.00;2.00;;;;;;;;5055272;28;45500;-80
2021/06/29 04:52:55;;;;;;;;;3.00;3.00;;;;;;;;5058780;28;45461;-82
2021/06/29 04:55:20;;;;;;;;;2.50;2.50;;;;;;;;5052881;28;45500;-80
2021/06/29 04:57:45;;;;;;;;;2.00;2.00;;;;;;;;5051888;28;45442;-80
2021/06/29 05:00:12;;;;;;;;;2.00;2.00;;;;;;;;5055573;28;45685;-80
2021/06/29 05:02:38;;;;;;;;;3.00;3.00;;;;;;;;5051383;27;45332;-80
2021/06/29 05:05:04;;;;;;;;;2.00;2.00;;;;;;;;5051151;27;45394;-80
2021/06/29 05:07:30;;;;;;;;;2.00;2.00;;;;;;;;5050872;28;45507;-80
2021/06/29 05:09:55;;;;;;;;;2.00;2.00;;;;;;;;5055899;28;46015;-80
2021/06/29 05:12:20;;;;;;;;;1.00;1.00;;;;;;;;5055112;28;45425;-79
2021/06/29 05:14:45;;;;;;;;;2.00;2.00;;;;;;;;5052316;28;45732;-80
2021/06/29 05:17:11;;;;;;;;;2.00;2.00;;;;;;;;5052027;28;45525;-80
2021/06/29 05:19:36;;;;;;;;;1.00;1.00;;;;;;;;5054325;28;45527;-80
2021/06/29 05:22:01;;;;;;;;;2.00;2.00;;;;;;;;5050580;28;45387;-81
2021/06/29 05:24:26;;;;;;;;;3.25;1.75;;;;;;;;5052632;28;45931;-80
2021/06/29 05:26:52;;;;;;;;;5.50;2.75;;;;;;;;5053567;28;45729;-81
2021/06/29 05:29:17;;;;;;;;;3.75;2.50;;;;;;;;5054611;28;45465;-81
2021/06/29 05:31:42;;;;;;;;;2.00;2.00;;;;;;;;5055509;28;45549;-80
2021/06/29 05:34:08;;;;;;;;;3.50;1.75;;;;;;;;5054989;28;45446;-80
2021/06/29 05:36:34;;;;;;;;;2.00;2.00;;;;;;;;5058330;28;47013;-80
2021/06/29 05:38:59;;;;;;;;;2.50;2.00;;;;;;;;5057691;28;45377;-79
2021/06/29 05:41:24;;;;;;;;;2.33;2.33;;;;;;;;5060255;28;45531;-80
2021/06/29 05:43:49;;;;;;;;;2.67;2.00;;;;;;;;5051803;28;45391;-80
2021/06/29 05:46:14;;;;;;;;;2.00;2.00;;;;;;;;5053150;28;45295;-80
2021/06/29 05:48:41;;;;;;;;;3.00;3.00;;;;;;;;5054445;28;45304;-80
2021/06/29 05:51:06;;;;;;;;;3.00;3.00;;;;;;;;5057116;28;45386;-80
2021/06/29 05:53:31;;;;;;;;;3.00;3.00;;;;;;;;5054381;28;45556;-80
2021/06/29 05:55:57;;;;;;;;;2.00;2.00;;;;;;;;5058721;28;45480;-80
2021/06/29 05:58:23;;;;;;;;;3.25;2.00;;;;;;;;5058235;28;46186;-79
2021/06/29 06:00:48;;;;;;;;;3.25;2.00;;;;;;;;5057027;28;45469;-79
2021/06/29 06:03:14;;;;;;;;;3.50;3.00;;;;;;;;5056961;28;45604;-80
2021/06/29 06:05:39;;;;;;;;;3.25;2.75;;;;;;;;5059303;27;45715;-80
2021/06/29 06:08:05;;;;;;;;;2.00;2.00;;;;;;;;5065594;28;45444;-80
2021/06/29 06:10:30;;;;;;;;;3.50;2.00;;;;;;;;5052868;28;45536;-80
2021/06/29 06:12:55;;;;;;;;;4.00;3.00;;;;;;;;5057078;28;45386;-81
2021/06/29 06:15:22;;;;;;;;;2.00;2.00;;;;;;;;5053749;28;45376;-80
2021/06/29 06:17:48;;;;;;;;;2.25;2.00;;;;;;;;5050649;28;45925;-78
2021/06/29 06:20:13;;;;;;;;;3.00;3.00;;;;;;;;5053949;28;45549;-81
2021/06/29 06:22:38;;;;;;;;;4.00;3.00;;;;;;;;5063811;28;45823;-79
2021/06/29 06:25:05;;;;;;;;;3.00;2.75;;;;;;;;5054696;28;47147;-79
2021/06/29 06:27:30;;;;;;;;;2.25;2.00;;;;;;;;5055854;28;45792;-79
2021/06/29 06:29:55;;;;;;;;;2.25;2.00;;;;;;;;5056436;28;45512;-79
2021/06/29 06:32:20;;;;;;;;;3.00;2.00;;;;;;;;5069734;27;45501;-78
2021/06/29 06:34:46;;;;;;;;;3.33;2.67;;;;;;;;5052215;28;46161;-79
2021/06/29 06:37:11;;;;;;;;;1.00;1.00;;;;;;;;5052439;28;45788;-80
2021/06/29 06:39:36;;;;;;;;;3.00;2.00;;;;;;;;5054330;28;45350;-80
2021/06/29 06:42:01;;;;;;;;;3.33;2.00;;;;;;;;5051925;28;45508;-79
2021/06/29 06:44:27;;;;;;;;;2.00;2.00;;;;;;;;5052928;28;47373;-79
2021/06/29 06:46:52;;;;;;;;;2.67;2.00;;;;;;;;5050595;28;45467;-80
2021/06/29 06:49:17;;;;;;;;;3.00;2.00;;;;;;;;5052132;28;45591;-80
2021/06/29 06:51:42;;;;;;;;;3.00;3.00;;;;;;;;5056381;28;45701;-79
2021/06/29 06:54:08;;;;;;;;;2.00;2.00;;;;;;;;5043717;28;45992;-79
2021/06/29 06:56:33;;;;;;;;;2.00;2.00;;;;;;;;5053682;28;45451;-79
2021/06/29 06:58:59;;;;;;;;;4.67;2.33;;;;;;;;5047006;28;45578;-80
2021/06/29 07:01:24;;;;;;;;;2.25;2.25;;;;;;;;5046579;28;45317;-79
2021/06/29 07:03:49;;;;;;;;;2.33;2.33;;;;;;;;5050266;28;47824;-80
2021/06/29 07:06:14;;;;;;;;;4.00;3.00;;;;;;;;5049981;28;45426;-79
2021/06/29 07:08:40;;;;;;;;;3.50;3.00;;;;;;;;5052215;28;45556;-80
2021/06/29 07:11:07;;;;;;;;;3.50;3.50;;;;;;;;5048695;27;45675;-79
2021/06/29 07:13:32;;;;;;;;;3.50;3.25;;;;;;;;5047152;28;45646;-78
2021/06/29 07:15:57;;;;;;;;;4.33;3.00;;;;;;;;5052421;28;45738;-78
2021/06/29 07:18:23;;;;;;;;;4.00;2.00;;;;;;;;5058569;28;45537;-78
2021/06/29 07:20:48;;;;;;;;;3.00;3.00;;;;;;;;5056530;28;45710;-78
2021/06/29 07:23:14;;;;;;;;;3.50;3.50;;;;;;;;5061765;28;47540;-78
2021/06/29 07:25:40;;;;;;;;;3.00;3.00;;;;;;;;5051849;28;46767;-79
2021/06/29 07:28:06;;;;;;;;;4.00;4.00;;;;;;;;5053057;28;45432;-81
2021/06/29 07:30:32;;;;;;;;;5.00;3.25;;;;;;;;5061031;28;45559;-79
2021/06/29 07:32:58;;;;;;;;;4.00;4.00;;;;;;;;5057342;28;47972;-79
2021/06/29 07:35:24;;;;;;;;;5.75;4.00;;;;;;;;5059329;28;45828;-78
2021/06/29 07:37:49;;;;;;;;;7.50;5.00;;;;;;;;5047707;28;45496;-78
2021/06/29 07:40:15;;;;;;;;;5.67;5.00;;;;;;;;5048263;28;45377;-79
2021/06/29 07:42:40;;;;;;;;;5.00;4.00;;;;;;;;5060071;28;48070;-78
2021/06/29 07:45:07;;;;;;;;;9.50;5.00;;;;;;;;5052872;27;45227;-80
2021/06/29 07:47:32;;;;;;;;;5.25;5.00;;;;;;;;5048861;28;45626;-79
2021/06/29 07:49:57;;;;;;;;;8.75;7.50;;;;;;;;5061883;28;45502;-78
2021/06/29 07:52:23;;;;;;;;;5.00;4.25;;;;;;;;5054719;28;47477;-80
2021/06/29 07:54:48;;;;;;;;;6.33;4.67;;;;;;;;5051676;28;46122;-79
2021/06/29 07:57:13;;;;;;;;;6.75;5.75;;;;;;;;5049831;28;45899;-79
2021/06/29 07:59:39;;;;;;;;;4.33;4.00;;;;;;;;5051363;28;45486;-81
2021/06/29 08:02:04;;;;;;;;;6.00;4.67;;;;;;;;5051144;28;47265;-80
2021/06/29 08:04:29;;;;;;;;;4.75;4.75;;;;;;;;5050099;28;46094;-80
2021/06/29 08:06:54;;;;;;;;;6.33;6.00;;;;;;;;5065483;28;45513;-80
2021/06/29 08:09:20;;;;;;;;;9.33;5.00;;;;;;;;5055783;28;45969;-78
2021/06/29 08:11:45;;;;;;;;;7.25;5.00;;;;;;;;5053515;28;47587;-79
2021/06/29 08:14:10;;;;;;;;;4.00;4.00;;;;;;;;5060664;28;45587;-79
2021/06/29 08:16:36;;;;;;;;;5.25;5.00;;;;;;;;5060733;28;45550;-78
2021/06/29 08:19:02;;;;;;;;;6.50;5.00;;;;;;;;5051391;28;45514;-79
2021/06/29 08:21:27;;;;;;;;;4.75;4.75;;;;;;;;5051778;28;46340;-82
2021/06/29 08:23:52;;;;;;;;;3.00;3.00;;;;;;;;5053034;28;45460;-81
2021/06/29 08:26:18;;;;;;;;;10.67;4.00;;;;;;;;5059493;28;45344;-78
2021/06/29 08:28:43;;;;;;;;;13.50;10.50;;;;;;;;5050360;28;45589;-79
2021/06/29 08:31:08;;;;;;;;;5.00;5.00;;;;;;;;5050600;28;45613;-81
2021/06/29 08:33:33;;;;;;;;;5.50;5.00;;;;;;;;5047779;28;45413;-79
2021/06/29 08:35:59;;;;;;;;;4.67;4.67;;;;;;;;5049182;28;45801;-78
2021/06/29 08:38:24;;;;;;;;;5.00;4.00;;;;;;;;5060933;27;45287;-79
2021/06/29 08:40:50;;;;;;;;;7.75;6.50;;;;;;;;5054801;28;46081;-79
2021/06/29 08:43:15;;;;;;;;;4.00;4.00;;;;;;;;5050617;28;45536;-83
2021/06/29 08:45:41;;;;;;;;;5.00;5.00;;;;;;;;5058451;28;45351;-80
2021/06/29 08:48:07;;;;;;;;;5.00;5.00;;;;;;;;5054235;28;45470;-80
2021/06/29 08:50:33;;;;;;;;;5.75;5.00;;;;;;;;5056877;28;46409;-81
2021/06/29 08:52:59;;;;;;;;;4.25;3.50;;;;;;;;5057934;28;45598;-82
2021/06/29 08:55:28;;;;;;;;;3.00;3.00;;;;;;;;5045781;28;45653;-82
2021/06/29 08:57:54;;;;;;;;;2.00;2.00;;;;;;;;5052706;28;45562;-79
2021/06/29 09:00:20;;;;;;;;;3.25;3.25;;;;;;;;5051138;28;47316;-79
2021/06/29 09:02:45;;;;;;;;;4.00;3.00;;;;;;;;5053331;28;45550;-78
2021/06/29 09:05:24;;;;;;;;;2.00;2.00;;;;;;;;5075748;27;45573;-79
2021/06/29 09:07:59;;;;;;;;;1.25;1.25;;;;;;;;5054698;28;45439;-79
2021/06/29 09:10:25;;;;;;;;;4.00;2.00;;;;;;;;5049283;28;48875;-78
2021/06/29 09:12:52;;;;;;;;;2.00;2.00;;;;;;;;5044670;28;45491;-78
2021/06/29 09:15:26;;;;;;;;;2.50;2.50;;;;;;;;5050652;28;45578;-79
2021/06/29 09:17:52;;;;;;;;;4.50;2.00;;;;;;;;5050627;28;45343;-80
2021/06/29 09:20:28;;;;;;;;;1.00;1.00;;;;;;;;5047736;28;46265;-80
2021/06/29 09:22:54;;;;;;;;;2.00;1.25;;;;;;;;5060238;28;45517;-79
2021/06/29 09:25:22;;;;;;;;;1.00;1.00;;;;;;;;5049379;28;45511;-79
2021/06/29 09:27:48;;;;;;;;;1.50;1.00;;;;;;;;5044997;28;45480;-79
2021/06/29 09:30:26;;;;;;;;;3.00;1.00;;;;;;;;5053221;28;47314;-80
2021/06/29 09:32:51;;;;;;;;;1.00;1.00;;;;;;;;5049465;28;45462;-80
2021/06/29 09:35:17;;;;;;;;;0.00;0.00;;;;;;;;5048414;28;45747;-79
2021/06/29 09:37:45;;;;;;;;;1.00;1.00;;;;;;;;5051426;28;45562;-78
2021/06/29 09:40:11;;;;;;;;;0.00;0.00;;;;;;;;5048270;28;46204;-79
2021/06/29 09:42:37;;;;;;;;;3.00;1.00;;;;;;;;5049706;28;45680;-79
2021/06/29 09:45:02;;;;;;;;;0.25;0.25;;;;;;;;5049114;28;45470;-80
2021/06/29 09:47:29;;;;;;;;;1.00;1.00;;;;;;;;5048510;28;46754;-78
2021/06/29 09:49:56;;;;;;;;;0.75;0.75;;;;;;;;5046888;28;45378;-79
2021/06/29 09:52:29;;;;;;;;;0.00;0.00;;;;;;;;5048620;28;45378;-79
2021/06/29 09:54:54;;;;;;;;;1.00;1.00;;;;;;;;5066616;28;45411;-79
2021/06/29 09:57:23;;;;;;;;;1.00;1.00;;;;;;;;5048776;28;45810;-79
2021/06/29 09:59:49;;;;;;;;;1.00;1.00;;;;;;;;5047445;28;46355;-79
2021/06/29 10:02:14;;;;;;;;;0.00;0.00;;;;;;;;5049046;28;45516;-80
2021/06/29 10:04:40;;;;;;;;;1.00;1.00;;;;;;;;5047792;28;45540;-79
2021/06/29 10:07:13;;;;;;;;;1.00;1.00;;;;;;;;5048753;28;45529;-79
2021/06/29 10:09:38;;;;;;;;;2.00;0.75;;;;;;;;5049129;28;45547;-78
2021/06/29 10:12:03;;;;;;;;;1.00;1.00;;;;;;;;5046888;28;45536;-79
2021/06/29 10:14:29;;;;;;;;;1.00;1.00;;;;;;;;5051109;28;45555;-79
2021/06/29 10:16:57;;;;;;;;;0.50;0.50;;;;;;;;5053053;28;45692;-79
2021/06/29 10:19:37;;;;;;;;;0.00;0.00;;;;;;;;5053857;28;45418;-79
2021/06/29 10:22:03;;;;;;;;;1.00;1.00;;;;;;;;5051774;28;47002;-79
2021/06/29 10:24:30;;;;;;;;;0.25;0.25;;;;;;;;5065806;28;45667;-79
2021/06/29 10:26:56;;;;;;;;;2.00;1.00;;;;;;;;5051204;28;45632;-79
2021/06/29 10:29:23;;;;;;;;;0.00;0.00;;;;;;;;5053991;28;45944;-79
2021/06/29 10:31:49;;;;;;;;;0.00;0.00;;;;;;;;5053418;28;46887;-77
2021/06/29 10:34:15;;;;;;;;;0.00;0.00;;;;;;;;5054192;28;45605;-78
2021/06/29 10:36:42;;;;;;;;;0.00;0.00;;;;;;;;5052332;28;45458;-77
2021/06/29 10:39:09;;;;;;;;;0.00;0.00;;;;;;;;5046638;28;49233;-79
2021/06/29 10:41:36;;;;;;;;;1.00;1.00;;;;;;;;5041045;28;45868;-79
2021/06/29 10:44:01;;;;;;;;;0.00;0.00;;;;;;;;5048586;28;45626;-79
2021/06/29 10:46:29;;;;;;;;;0.00;0.00;;;;;;;;5051095;28;45421;-79
2021/06/29 10:48:56;;;;;;;;;0.00;0.00;;;;;;;;5054860;28;46068;-79
2021/06/29 10:51:37;;;;;;;;;0.00;0.00;;;;;;;;5052952;28;45858;-78
2021/06/29 10:54:02;;;;;;;;;0.50;0.50;;;;;;;;5052211;28;47625;-78
2021/06/29 10:56:47;;;;;;;;;0.00;0.00;;;;;;;;5050304;28;45642;-79
2021/06/29 10:59:14;;;;;;;;;1.75;0.00;;;;;;;;5053049;28;46271;-79
2021/06/29 11:01:53;;;;;;;;;0.25;0.25;;;;;;;;5051788;28;45821;-79
2021/06/29 11:04:38;;;;;;;;;1.00;1.00;;;;;;;;5052071;28;45378;-79
2021/06/29 11:07:23;;;;;;;;;0.50;0.25;;;;;;;;5049982;28;45320;-79
2021/06/29 11:09:53;;;;;;;;;0.00;0.00;;;;;;;;5054808;28;46885;-79
2021/06/29 11:12:23;;;;;;;;;0.25;0.00;;;;;;;;5052464;28;45509;-79
2021/06/29 11:14:49;;;;;;;;;0.00;0.00;;;;;;;;5051665;28;45478;-79
2021/06/29 11:17:16;;;;;;;;;0.00;0.00;;;;;;;;5061143;28;45641;-79
2021/06/29 11:20:00;;;;;;;;;0.00;0.00;;;;;;;;5062375;28;51290;-78
2021/06/29 11:22:43;;;;;;;;;0.00;0.00;;;;;;;;5038643;28;45414;-78
2021/06/29 11:25:09;;;;;;;;;0.00;0.00;;;;;;;;5057262;28;45650;-78
2021/06/29 11:27:53;;;;;;;;;0.00;0.00;;;;;;;;5060924;28;45403;-77
2021/06/29 11:30:57;;;;;;;;;0.00;0.00;;;;;;;;5052044;28;48502;-79
2021/06/29 11:33:40;;;;;;;;;1.00;0.00;;;;;;;;4990100;28;45833;-77
2021/06/29 11:36:24;;;;;;;;;0.50;0.50;;;;;;;;5004391;28;45505;-79
2021/06/29 11:38:57;;;;;;;;;1.00;1.00;;;;;;;;4986872;28;45548;-79
2021/06/29 11:41:28;;;;;;;;;1.75;0.75;;;;;;;;4973807;28;48399;-77
2021/06/29 11:43:54;;;;;;;;;0.00;0.00;;;;;;;;4990313;28;45590;-79
2021/06/29 11:46:38;;;;;;;;;0.25;0.25;;;;;;;;4989172;28;45400;-79
2021/06/29 11:49:07;;;;;;;;;0.00;0.00;;;;;;;;4988476;28;45865;-79
2021/06/29 11:51:49;;;;;;;;;0.00;0.00;;;;;;;;4989886;28;48152;-80
2021/06/29 11:54:32;;;;;;;;;0.00;0.00;;;;;;;;4979800;28;45677;-78
2021/06/29 11:56:58;;;;;;;;;0.25;0.25;;;;;;;;4983439;28;45521;-78
2021/06/29 11:59:32;;;;;;;;;0.00;0.00;;;;;;;;4989550;28;45495;-79
2021/06/29 12:02:04;;;;;;;;;1.00;0.00;;;;;;;;4971572;28;48581;-79
2021/06/29 12:04:32;;;;;;;;;0.00;0.00;;;;;;;;5020028;28;45931;-78
2021/06/29 12:07:05;;;;;;;;;1.50;0.00;;;;;;;;5039252;28;46365;-78
2021/06/29 12:09:34;;;;;;;;;0.00;0.00;;;;;;;;5041060;28;45506;-79
2021/06/29 12:12:23;;;;;;;;;0.25;0.25;;;;;;;;5044121;28;46388;-79
2021/06/29 12:15:01;;;;;;;;;0.00;0.00;;;;;;;;5040797;28;45538;-79
2021/06/29 12:17:31;;;;;;;;;0.00;0.00;;;;;;;;5044577;28;45525;-79
2021/06/29 12:20:01;;;;;;;;;3.75;1.00;;;;;;;;5048814;28;45806;-79
2021/06/29 12:22:31;;;;;;;;;0.75;0.75;;;;;;;;5047986;28;46197;-79
2021/06/29 12:24:57;;;;;;;;;0.00;0.00;;;;;;;;5040503;28;45699;-79
2021/06/29 12:27:23;;;;;;;;;0.00;0.00;;;;;;;;5047048;28;45645;-79
2021/06/29 12:29:48;;;;;;;;;0.00;0.00;;;;;;;;5046001;28;45434;-82
2021/06/29 12:32:23;;;;;;;;;0.00;0.00;;;;;;;;5041098;28;45449;-79
2021/06/29 12:34:49;;;;;;;;;0.00;0.00;;;;;;;;5044151;28;45364;-78
2021/06/29 12:37:14;;;;;;;;;0.00;0.00;;;;;;;;5047516;28;45484;-78
2021/06/29 12:39:40;;;;;;;;;0.00;0.00;;;;;;;;5046886;28;46481;-78
2021/06/29 12:42:09;;;;;;;;;0.00;0.00;;;;;;;;5044392;28;48301;-79
2021/06/29 12:44:34;;;;;;;;;1.00;1.00;;;;;;;;5050697;28;45565;-78
2021/06/29 12:47:00;;;;;;;;;0.00;0.00;;;;;;;;5060407;28;45413;-79
2021/06/29 12:49:27;;;;;;;;;0.00;0.00;;;;;;;;5060876;28;45304;-78
2021/06/29 12:51:56;;;;;;;;;0.00;0.00;;;;;;;;5048250;28;48222;-78
2021/06/29 12:54:22;;;;;;;;;0.00;0.00;;;;;;;;5057122;28;45534;-78
2021/06/29 12:56:55;;;;;;;;;1.00;1.00;;;;;;;;5050783;27;45347;-79
2021/06/29 12:59:23;;;;;;;;;1.00;1.00;;;;;;;;5049238;28;45869;-79
2021/06/29 13:01:52;;;;;;;;;0.50;0.50;;;;;;;;5058752;28;47356;-78
2021/06/29 13:04:17;;;;;;;;;2.25;0.75;;;;;;;;5058620;28;45935;-78
2021/06/29 13:06:45;;;;;;;;;0.25;0.25;;;;;;;;5034126;28;47639;-78
2021/06/29 13:09:18;;;;;;;;;0.00;0.00;;;;;;;;5047072;28;45410;-78
2021/06/29 13:11:52;;;;;;;;;1.00;1.00;;;;;;;;5046316;28;46050;-79
2021/06/29 13:14:18;;;;;;;;;1.00;1.00;;;;;;;;5046302;28;45726;-78
2021/06/29 13:16:43;;;;;;;;;2.00;0.00;;;;;;;;5042701;28;45383;-80
2021/06/29 13:19:21;;;;;;;;;0.00;0.00;;;;;;;;5039978;28;45380;-78
2021/06/29 13:22:00;;;;;;;;;0.00;0.00;;;;;;;;5055579;28;47242;-79
2021/06/29 13:24:36;;;;;;;;;1.00;1.00;;;;;;;;5067123;27;45564;-77
2021/06/29 13:27:03;;;;;;;;;6.75;4.00;;;;;;;;5047647;28;45416;-80
2021/06/29 13:29:32;;;;;;;;;13.25;10.00;;;;;;;;5043564;28;45569;-79
2021/06/29 13:31:57;;;;;;;;;73.25;60.00;;;;;;;;5049044;28;46065;-78
2021/06/29 13:34:24;;;;;;;;;166.50;145.50;;;;;;;;5045431;28;45455;-78
2021/06/29 13:36:50;;;;;;;;;99.75;81.00;;;;;;;;5045133;28;47107;-79
2021/06/29 13:39:25;;;;;;;;;63.00;47.50;;;;;;;;5044579;28;45342;-79
2021/06/29 13:41:50;;;;;;;;;59.50;45.50;;;;;;;;5038999;28;45426;-78
2021/06/29 13:44:16;;;;;;;;;27.25;24.50;;;;;;;;5036073;28;45692;-78
2021/06/29 13:46:41;;;;;;;;;9.25;7.75;;;;;;;;5070133;27;45537;-79
2021/06/29 13:49:21;;;;;;;;;5.75;5.75;;;;;;;;5044706;28;45410;-78
2021/06/29 13:51:47;;;;;;;;;13.25;12.00;;;;;;;;5039707;28;47252;-78
2021/06/29 13:54:14;;;;;;;;;6.00;6.00;;;;;;;;5042170;28;45284;-79
2021/06/29 13:56:39;;;;;;;;;5.00;3.75;;;;;;;;5039180;28;45573;-78
2021/06/29 13:59:05;;;;;;;;;1.00;1.00;;;;;;;;5051913;28;45423;-79
2021/06/29 14:01:32;;;;;;;;;3.75;3.75;;;;;;;;5038413;28;46690;-78
2021/06/29 14:04:01;;;;;;;;;9.25;7.25;;;;;;;;5041425;28;45792;-78
2021/06/29 14:06:27;;;;;;;;;13.25;10.25;;;;;;;;5041920;28;45399;-78
2021/06/29 14:09:04;;;;;;;;;17.33;12.33;;;;;;;;5040356;28;45703;-79
2021/06/29 14:11:34;;;;;;;;;16.75;15.25;;;;;;;;5050909;28;45627;-79
2021/06/29 14:14:01;;;;;;;;;17.25;10.25;;;;;;;;5044018;28;46320;-78
2021/06/29 14:16:26;;;;;;;;;13.00;9.75;;;;;;;;5050614;28;45501;-78
2021/06/29 14:18:52;;;;;;;;;9.75;6.50;;;;;;;;5053562;28;45336;-77
2021/06/29 14:21:21;;;;;;;;;8.00;4.00;;;;;;;;5047361;28;47076;-80
2021/06/29 14:23:47;;;;;;;;;4.50;3.75;;;;;;;;5043103;28;45734;-76
2021/06/29 14:26:13;;;;;;;;;4.00;2.00;;;;;;;;5043196;28;45589;-79
2021/06/29 14:28:38;;;;;;;;;1.00;1.00;;;;;;;;5047274;28;45583;-79
2021/06/29 14:31:04;;;;;;;;;1.00;1.00;;;;;;;;5061680;28;47300;-79
2021/06/29 14:33:29;;;;;;;;;2.00;2.00;;;;;;;;5051141;28;45553;-80
2021/06/29 14:35:55;;;;;;;;;1.00;1.00;;;;;;;;5047987;28;45584;-80
2021/06/29 14:38:20;;;;;;;;;1.75;1.75;;;;;;;;5053498;28;45473;-79
2021/06/29 14:40:45;;;;;;;;;1.00;1.00;;;;;;;;5053141;28;47386;-79
2021/06/29 14:43:11;;;;;;;;;1.00;1.00;;;;;;;;5053199;28;46006;-79